Time;durP1;ratioP1;P1;durP2;ratioP2;P2;SDS_P1;SDS_P2;PMS_P1;PMS_P2;Temp;Humidity;BMP_temperature;BMP_pressure;BME280_temperature;BME280_humidity;BME280_pressure;Samples;Min_cycle;Max_cycle;Signal;HPM_P1;HPM_P2
2023/10/07 00:00:53;;;;;;;1.73;0.82;;;16.90;87.00;17.00;100819.00;;;;4998013;27;87124;-70
2023/10/07 00:03:20;;;;;;;1.17;1.00;;;16.90;87.10;17.00;100810.00;;;;4986247;27;89573;-69
2023/10/07 00:05:47;;;;;;;1.42;1.17;;;16.90;87.20;17.00;100809.00;;;;5009779;27;87496;-69
2023/10/07 00:08:19;;;;;;;1.13;0.80;;;16.90;87.40;16.90;100813.00;;;;5019274;27;86345;-69
2023/10/07 00:10:49;;;;;;;2.67;1.65;;;16.80;87.50;16.90;100807.00;;;;5024907;27;87406;-70
2023/10/07 00:13:20;;;;;;;1.98;1.33;;;16.80;87.70;16.90;100791.00;;;;4994705;27;87818;-69
2023/10/07 00:15:49;;;;;;;3.72;1.60;;;16.80;87.90;16.90;100804.00;;;;4993678;27;88507;-70
2023/10/07 00:18:22;;;;;;;2.58;1.60;;;16.80;87.90;16.90;100800.00;;;;5010841;27;87438;-70
2023/10/07 00:20:56;;;;;;;1.40;0.98;;;16.80;87.90;16.80;100799.00;;;;4991790;27;87118;-69
2023/10/07 00:23:26;;;;;;;2.38;0.95;;;16.70;88.00;16.80;100803.00;;;;5006501;27;87521;-71
2023/10/07 00:26:00;;;;;;;1.48;1.10;;;16.70;88.20;16.80;100805.00;;;;5016445;27;87546;-70
2023/10/07 00:28:34;;;;;;;1.50;1.10;;;16.70;88.30;16.80;100803.00;;;;4999872;27;87560;-67
2023/10/07 00:31:12;;;;;;;5.50;1.67;;;16.70;88.40;16.70;100800.00;;;;5008086;27;88077;-70
2023/10/07 00:39:00;;;;;;;3.17;0.70;;;16.60;88.80;16.60;100800.00;;;;5006926;27;87079;-70
2023/10/07 00:41:36;;;;;;;0.85;0.75;;;16.60;89.10;16.60;100784.00;;;;4992646;27;88249;-69
2023/10/07 00:44:17;;;;;;;1.88;0.95;;;16.50;89.20;16.60;100793.00;;;;5015205;27;87577;-70
2023/10/07 00:46:48;;;;;;;1.30;1.20;;;16.50;89.30;16.60;100789.00;;;;5019960;27;87465;-70
2023/10/07 00:49:22;;;;;;;0.80;0.57;;;16.50;89.40;16.60;100804.00;;;;5017560;27;87395;-70
2023/10/07 00:51:49;;;;;;;1.45;0.80;;;16.50;89.50;16.60;100797.00;;;;5006336;27;87387;-69
2023/10/07 00:54:37;;;;;;;2.22;1.42;;;16.50;89.60;16.60;100799.00;;;;5019993;27;87679;-69
2023/10/07 00:57:13;;;;;;;1.02;0.68;;;16.50;89.70;16.50;100787.00;;;;5003268;27;87645;-70
2023/10/07 00:59:49;;;;;;;1.88;1.20;;;16.50;89.80;16.50;100797.00;;;;5002604;27;86596;-69
2023/10/07 01:02:22;;;;;;;2.80;1.13;;;16.40;89.90;16.50;100794.00;;;;5004951;27;87846;-70
2023/10/07 01:04:49;;;;;;;3.03;1.35;;;16.40;90.00;16.50;100793.00;;;;5004552;27;87892;-70
2023/10/07 01:07:19;;;;;;;2.53;1.42;;;16.40;90.00;16.50;100786.00;;;;5000526;27;88499;-70
2023/10/07 01:10:00;;;;;;;2.63;1.23;;;16.40;90.10;16.40;100775.00;;;;5024720;27;87101;-69
2023/10/07 01:12:26;;;;;;;1.58;1.02;;;16.40;90.10;16.40;100781.00;;;;5004311;27;87212;-68
2023/10/07 01:14:53;;;;;;;1.58;1.23;;;16.30;90.20;16.40;100787.00;;;;5018900;27;87599;-69
2023/10/07 01:17:30;;;;;;;4.43;1.67;;;16.30;90.20;16.50;100786.00;;;;5021702;27;87694;-70
2023/10/07 01:20:06;;;;;;;1.40;1.05;;;16.40;90.30;16.50;100783.00;;;;5003545;27;87598;-69
2023/10/07 01:22:35;;;;;;;2.50;1.83;;;16.40;90.30;16.50;100787.00;;;;5016418;27;88147;-69
2023/10/07 01:25:09;;;;;;;2.00;1.00;;;16.40;90.20;16.50;100777.00;;;;5003211;27;86772;-70
2023/10/07 01:27:42;;;;;;;1.30;1.05;;;16.40;90.30;16.50;100787.00;;;;5005005;27;87443;-70
2023/10/07 01:30:16;;;;;;;0.73;0.70;;;16.40;90.30;16.50;100779.00;;;;5021080;27;87409;-70
2023/10/07 01:32:53;;;;;;;2.78;1.27;;;16.40;90.30;16.60;100781.00;;;;4989788;27;88232;-69
2023/10/07 01:35:25;;;;;;;1.75;0.65;;;16.40;90.30;16.60;100780.00;;;;5004811;27;88815;-69
2023/10/07 01:38:07;;;;;;;6.30;1.45;;;16.50;90.30;16.60;100764.00;;;;5021401;27;87772;-69
2023/10/07 01:43:19;;;;;;;3.17;1.08;;;16.60;90.20;16.80;100759.00;;;;5018641;27;86956;-70
2023/10/07 01:45:48;;;;;;;1.23;0.75;;;16.60;90.10;16.80;100758.00;;;;5017238;27;87397;-69
2023/10/07 01:48:17;;;;;;;8.75;1.20;;;16.50;90.00;16.90;100759.00;;;;4996728;27;87476;-70
2023/10/07 01:50:45;;;;;;;2.17;1.13;;;16.70;90.00;16.90;100758.00;;;;5020353;27;86353;-71
2023/10/07 01:53:11;;;;;;;2.03;1.02;;;16.80;90.00;16.90;100748.00;;;;5004182;27;87087;-69
2023/10/07 01:55:42;;;;;;;2.00;1.15;;;16.80;90.20;16.90;100742.00;;;;5023096;27;87483;-70
2023/10/07 01:58:13;;;;;;;0.98;0.82;;;16.80;89.70;17.00;100738.00;;;;4998763;27;88216;-69
2023/10/07 02:00:46;;;;;;;1.95;0.77;;;16.90;89.70;17.00;100739.00;;;;5016456;27;87415;-68
2023/10/07 02:03:23;;;;;;;2.58;1.30;;;16.90;89.60;17.00;100738.00;;;;5012386;27;87424;-70
2023/10/07 02:05:50;;;;;;;1.42;1.33;;;16.90;89.70;17.00;100727.00;;;;5017326;27;87962;-69
2023/10/07 02:08:23;;;;;;;2.35;0.90;;;16.90;89.50;16.90;100722.00;;;;5013190;27;87122;-70
2023/10/07 02:10:57;;;;;;;3.15;1.75;;;16.90;89.60;16.90;100723.00;;;;5007094;27;87400;-70
2023/10/07 02:13:27;;;;;;;3.55;1.38;;;16.80;89.50;16.90;100711.00;;;;5007324;27;88488;-69
2023/10/07 02:15:57;;;;;;;2.38;1.30;;;16.80;89.70;16.80;100721.00;;;;4997441;27;87982;-69
2023/10/07 02:18:26;;;;;;;1.70;1.15;;;16.80;89.90;16.80;100723.00;;;;5016811;27;87145;-70
2023/10/07 02:21:05;;;;;;;5.95;1.33;;;16.80;90.00;16.70;100730.00;;;;5022039;27;87184;-69
2023/10/07 02:23:37;;;;;;;2.80;0.95;;;16.60;90.00;16.60;100719.00;;;;4998352;27;88804;-70
2023/10/07 02:26:32;;;;;;;1.20;0.98;;;16.60;90.10;16.60;100731.00;;;;5011181;27;87491;-69
2023/10/07 02:29:06;;;;;;;2.60;1.35;;;16.50;90.20;16.50;100738.00;;;;5012577;27;87340;-69
2023/10/07 02:31:42;;;;;;;1.33;1.23;;;16.40;90.30;16.50;100731.00;;;;5019240;27;87390;-70
2023/10/07 02:34:10;;;;;;;6.20;1.58;;;16.40;90.40;16.40;100735.00;;;;4970893;28;87128;-69
2023/10/07 02:36:51;;;;;;;0.80;0.55;;;16.30;90.60;16.30;100723.00;;;;5007384;27;87977;-70
2023/10/07 02:39:31;;;;;;;2.00;1.40;;;16.40;90.60;16.30;100726.00;;;;4998614;27;87819;-70
2023/10/07 02:41:57;;;;;;;1.23;1.00;;;16.20;90.80;16.30;100729.00;;;;4998982;27;86740;-69
2023/10/07 02:44:27;;;;;;;3.20;1.75;;;16.20;90.90;16.20;100722.00;;;;4962923;27;87147;-70
2023/10/07 02:46:54;;;;;;;1.60;1.08;;;16.20;91.00;16.20;100712.00;;;;5012261;27;87924;-70
2023/10/07 02:49:21;;;;;;;3.70;1.70;;;16.10;91.10;16.10;100723.00;;;;4987856;27;88043;-69
2023/10/07 02:51:56;;;;;;;1.95;1.63;;;16.10;91.50;16.10;100726.00;;;;5002162;27;87124;-69
2023/10/07 02:54:22;;;;;;;5.30;1.55;;;16.00;91.30;16.00;100725.00;;;;5012444;27;87063;-71
2023/10/07 02:56:55;;;;;;;2.95;1.50;;;16.00;91.40;16.00;100735.00;;;;4985319;27;88713;-69
2023/10/07 02:59:36;;;;;;;3.17;1.23;;;15.90;91.50;15.90;100738.00;;;;5018769;27;88495;-70
2023/10/07 03:02:25;;;;;;;0.80;0.80;;;15.40;91.50;15.90;100741.00;;;;5018863;27;87879;-68
2023/10/07 03:07:41;;;;;;;2.65;0.95;;;15.80;91.90;15.80;100752.00;;;;5004858;27;86406;-70
2023/10/07 03:10:17;;;;;;;1.33;0.65;;;15.70;91.90;15.70;100745.00;;;;5003988;27;87421;-70
2023/10/07 03:12:48;;;;;;;1.23;1.10;;;15.70;92.20;15.70;100743.00;;;;4985287;27;87379;-71
2023/10/07 03:15:27;;;;;;;2.28;0.90;;;15.60;92.20;15.70;100740.00;;;;5017612;27;88407;-69
2023/10/07 03:17:53;;;;;;;1.40;1.30;;;15.60;92.20;15.70;100735.00;;;;4998366;27;87595;-69
2023/10/07 03:20:28;;;;;;;1.45;0.90;;;15.60;92.40;15.60;100744.00;;;;4995491;27;87454;-69
2023/10/07 03:23:18;;;;;;;1.80;1.38;;;15.60;92.40;15.60;100742.00;;;;5010348;27;87135;-70
2023/10/07 03:26:05;;;;;;;1.30;0.93;;;15.50;92.50;15.60;100743.00;;;;5009675;27;87138;-70
2023/10/07 03:28:51;;;;;;;3.72;1.30;;;15.50;92.70;15.60;100732.00;;;;4988433;27;87672;-70
2023/10/07 03:31:20;;;;;;;3.90;1.27;;;15.50;92.80;15.60;100725.00;;;;5019538;27;87172;-70
2023/10/07 03:33:58;;;;;;;1.58;1.02;;;15.50;92.90;15.60;100739.00;;;;5006092;27;86750;-69
2023/10/07 03:36:40;;;;;;;2.28;0.85;;;15.60;93.00;15.70;100727.00;;;;5001516;27;87535;-70
2023/10/07 03:41:48;;;;;;;1.15;1.02;;;15.60;92.90;15.70;100715.00;;;;4998401;27;88420;-70
2023/10/07 03:44:19;;;;;;;1.52;0.98;;;15.60;92.90;15.70;100729.00;;;;4973821;27;87014;-70
2023/10/07 03:46:54;;;;;;;4.15;1.23;;;15.60;93.00;15.60;100733.00;;;;5016569;27;87051;-69
2023/10/07 03:49:33;;;;;;;2.65;1.67;;;15.60;93.00;15.60;100730.00;;;;5016938;27;87476;-70
2023/10/07 03:52:12;;;;;;;1.77;1.10;;;15.50;93.00;15.50;100745.00;;;;4988058;27;87389;-70
2023/10/07 03:54:42;;;;;;;0.95;0.60;;;15.50;93.20;15.50;100744.00;;;;5004727;27;87349;-69
2023/10/07 03:57:09;;;;;;;1.35;1.00;;;15.50;93.20;15.50;100749.00;;;;5005174;27;87006;-68
2023/10/07 03:59:39;;;;;;;1.75;1.20;;;15.40;93.30;15.50;100745.00;;;;5002314;27;87084;-70
2023/10/07 04:02:29;;;;;;;0.95;0.75;;;15.40;93.30;15.50;100743.00;;;;5001965;27;87437;-70
2023/10/07 04:04:58;;;;;;;4.88;1.27;;;15.40;93.40;15.50;100757.00;;;;5020020;27;87077;-70
2023/10/07 04:07:26;;;;;;;3.13;1.15;;;15.40;93.40;15.50;100741.00;;;;5015300;27;88110;-69
2023/10/07 04:09:53;;;;;;;3.10;1.58;;;15.40;93.50;15.50;100755.00;;;;4981315;27;87616;-70
2023/10/07 04:12:22;;;;;;;3.92;1.63;;;15.40;93.50;15.50;100745.00;;;;5006578;27;87758;-70
2023/10/07 04:14:55;;;;;;;5.68;1.55;;;15.40;93.60;15.40;100735.00;;;;4985669;27;87389;-69
2023/10/07 04:17:31;;;;;;;2.35;1.35;;;15.40;93.70;15.40;100734.00;;;;5019935;27;87807;-70
2023/10/07 04:20:13;;;;;;;2.50;1.10;;;15.30;93.70;15.40;100718.00;;;;5021567;27;87536;-70
2023/10/07 04:22:39;;;;;;;1.60;1.00;;;15.30;93.80;15.40;100724.00;;;;5007692;27;89392;-69
2023/10/07 04:25:13;;;;;;;2.63;1.17;;;15.30;93.90;15.40;100708.00;;;;5021448;27;86778;-69
2023/10/07 04:27:42;;;;;;;2.28;1.20;;;15.30;94.00;15.40;100709.00;;;;5009345;27;87708;-69
2023/10/07 04:30:10;;;;;;;1.90;1.00;;;15.30;94.20;15.40;100704.00;;;;5025494;27;87697;-69
2023/10/07 04:32:52;;;;;;;2.40;1.90;;;15.30;94.20;15.40;100704.00;;;;5014180;27;88567;-70
2023/10/07 04:35:20;;;;;;;1.85;0.98;;;15.30;94.30;15.50;100694.00;;;;5016320;27;87578;-69
2023/10/07 04:37:54;;;;;;;2.35;1.23;;;15.40;94.40;15.50;100707.00;;;;5023151;27;87034;-68
2023/10/07 04:45:48;;;;;;;2.05;0.98;;;15.50;94.30;15.60;100686.00;;;;5021377;27;87611;-69
2023/10/07 04:48:24;;;;;;;2.05;1.08;;;15.50;94.20;15.60;100681.00;;;;5009033;27;87043;-70
2023/10/07 04:51:04;;;;;;;4.32;1.75;;;15.50;94.10;15.60;100678.00;;;;4991309;27;87077;-70
2023/10/07 04:53:38;;;;;;;1.83;1.17;;;15.50;94.10;15.60;100682.00;;;;4995045;27;87680;-69
2023/10/07 04:56:20;;;;;;;1.42;0.95;;;15.50;94.10;15.60;100682.00;;;;5019210;27;87493;-70
2023/10/07 04:58:47;;;;;;;1.70;1.17;;;15.60;94.10;15.60;100672.00;;;;5020231;27;88389;-70
2023/10/07 05:01:30;;;;;;;1.85;1.40;;;15.50;94.10;15.60;100677.00;;;;5020058;27;87496;-69
2023/10/07 05:03:58;;;;;;;0.80;0.70;;;15.50;94.20;15.60;100671.00;;;;5003609;27;89382;-69
2023/10/07 05:06:25;;;;;;;3.63;1.60;;;15.60;94.20;15.70;100692.00;;;;5002275;27;87949;-69
2023/10/07 05:08:52;;;;;;;1.10;0.63;;;15.60;94.10;15.70;100697.00;;;;5014582;27;87484;-70
2023/10/07 05:11:18;;;;;;;1.60;1.25;;;15.60;94.10;15.70;100694.00;;;;4994856;27;87808;-69
2023/10/07 05:13:46;;;;;;;2.40;1.23;;;15.60;94.10;15.80;100688.00;;;;5010264;27;96050;-70
2023/10/07 05:16:13;;;;;;;4.78;1.90;;;15.70;94.10;15.80;100692.00;;;;4996851;27;86833;-69
2023/10/07 05:18:41;;;;;;;1.52;1.27;;;15.70;94.10;15.80;100699.00;;;;5012320;27;87540;-70
2023/10/07 05:21:07;;;;;;;1.63;1.10;;;15.70;94.00;15.80;100715.00;;;;5015728;27;87501;-70
2023/10/07 05:23:34;;;;;;;3.10;1.15;;;15.70;94.00;15.80;100703.00;;;;5011173;27;88551;-70
2023/10/07 05:26:08;;;;;;;2.92;1.38;;;15.70;94.00;15.80;100710.00;;;;4970788;27;87883;-71
2023/10/07 05:28:35;;;;;;;5.00;1.05;;;15.70;94.00;15.90;100712.00;;;;4972599;28;87547;-69
2023/10/07 05:31:06;;;;;;;1.83;1.13;;;15.70;94.00;15.90;100705.00;;;;4987734;28;87409;-69
2023/10/07 05:33:35;;;;;;;1.77;1.67;;;15.80;94.00;15.90;100710.00;;;;4965068;28;87729;-70
2023/10/07 05:36:14;;;;;;;0.80;0.80;;;15.80;94.00;15.90;100702.00;;;;4954641;28;87518;-70
2023/10/07 05:38:45;;;;;;;1.98;1.08;;;15.80;94.00;15.90;100695.00;;;;4967925;28;87426;-70
2023/10/07 05:41:39;;;;;;;3.88;1.67;;;15.80;94.00;15.90;100701.00;;;;4991472;27;98249;-70
2023/10/07 05:44:15;;;;;;;3.30;1.80;;;15.80;94.10;15.90;100705.00;;;;4962689;27;87945;-70
2023/10/07 05:46:42;;;;;;;1.10;1.00;;;15.80;94.00;16.00;100705.00;;;;4998067;28;87031;-71
2023/10/07 05:49:10;;;;;;;2.28;1.00;;;15.90;94.00;16.00;100697.00;;;;4969835;27;88249;-69
2023/10/07 05:51:53;;;;;;;1.52;1.02;;;15.90;94.40;16.00;100702.00;;;;4976487;28;87694;-70
2023/10/07 05:54:18;;;;;;;1.90;1.30;;;15.90;94.00;16.00;100691.00;;;;4991294;27;87284;-69
2023/10/07 05:56:48;;;;;;;4.47;1.38;;;15.90;94.00;16.00;100695.00;;;;4998966;28;87173;-69
2023/10/07 05:59:15;;;;;;;1.50;1.40;;;15.90;94.00;16.00;100696.00;;;;4954190;28;87880;-68
2023/10/07 06:01:41;;;;;;;1.55;1.42;;;15.90;94.00;16.00;100690.00;;;;4983009;27;89446;-67
2023/10/07 06:04:07;;;;;;;1.50;0.90;;;15.90;94.00;16.00;100697.00;;;;4982312;28;90437;-68
2023/10/07 06:06:33;;;;;;;1.75;1.20;;;15.90;94.00;16.00;100705.00;;;;4981442;28;87269;-68
2023/10/07 06:09:02;;;;;;;1.58;1.27;;;15.90;94.00;16.00;100702.00;;;;4980714;28;88187;-67
2023/10/07 06:11:31;;;;;;;5.00;1.17;;;15.90;94.00;15.90;100713.00;;;;4978040;27;88105;-67
2023/10/07 06:13:59;;;;;;;2.17;0.95;;;15.90;94.10;15.90;100712.00;;;;4978228;27;91068;-67
2023/10/07 06:16:24;;;;;;;1.25;0.80;;;15.90;94.20;15.90;100727.00;;;;4976086;28;88040;-68
2023/10/07 06:18:50;;;;;;;3.55;0.90;;;15.80;94.10;15.90;100715.00;;;;4981499;28;108400;-67
2023/10/07 06:21:28;;;;;;;3.83;0.98;;;15.80;94.10;15.90;100724.00;;;;4972675;28;89837;-67
2023/10/07 06:24:00;;;;;;;2.05;1.60;;;15.80;94.10;15.90;100726.00;;;;4980339;27;88112;-67
2023/10/07 06:26:26;;;;;;;2.65;0.90;;;15.80;94.10;15.90;100725.00;;;;4978233;27;87932;-67
2023/10/07 06:28:51;;;;;;;2.05;0.93;;;15.80;94.10;16.00;100716.00;;;;4966007;27;88325;-66
2023/10/07 06:31:22;;;;;;;3.22;1.85;;;15.90;94.00;16.10;100717.00;;;;4982668;27;88295;-67
2023/10/07 06:34:14;;;;;;;2.08;1.48;;;16.00;93.90;16.20;100709.00;;;;4965849;27;88356;-66
2023/10/07 06:36:40;;;;;;;1.98;1.55;;;16.00;93.70;16.30;100720.00;;;;4981979;27;87802;-67
2023/10/07 06:39:07;;;;;;;2.78;1.40;;;16.10;93.50;16.50;100732.00;;;;4982398;27;88717;-67
2023/10/07 06:41:34;;;;;;;1.35;1.25;;;16.30;93.40;16.70;100717.00;;;;4984087;27;87908;-66
2023/10/07 06:44:03;;;;;;;2.40;1.08;;;16.50;93.10;16.90;100725.00;;;;4982748;27;88500;-67
2023/10/07 06:46:40;;;;;;;1.30;0.93;;;16.70;92.80;17.00;100716.00;;;;4983886;27;88053;-67
2023/10/07 06:49:19;;;;;;;3.20;1.30;;;16.90;92.40;17.10;100699.00;;;;4984150;27;87812;-68
2023/10/07 06:51:50;;;;;;;1.42;1.33;;;16.90;92.10;17.10;100700.00;;;;4970892;28;88166;-67
2023/10/07 06:54:16;;;;;;;1.25;0.95;;;17.00;91.80;17.10;100714.00;;;;4980495;27;89001;-67
2023/10/07 06:56:42;;;;;;;6.75;1.17;;;17.00;91.60;17.00;100702.00;;;;4983204;27;109978;-66
2023/10/07 06:59:10;;;;;;;1.65;1.25;;;17.00;91.40;17.00;100700.00;;;;4986417;27;109725;-66
2023/10/07 07:04:13;;;;;;;2.67;1.23;;;16.90;91.40;17.00;100706.00;;;;4979696;27;89914;-66
2023/10/07 07:06:44;;;;;;;3.08;1.60;;;16.90;91.30;17.00;100705.00;;;;4987587;27;88706;-67
2023/10/07 07:12:09;;;;;;;2.17;1.02;;;16.90;91.30;17.00;100721.00;;;;4966677;28;88103;-66
2023/10/07 07:14:36;;;;;;;4.13;1.65;;;16.90;91.10;17.00;100715.00;;;;4979996;27;88432;-66
2023/10/07 07:22:45;;;;;;;1.27;1.17;;;16.80;91.10;16.90;100724.00;;;;4972076;27;87261;-66
2023/10/07 07:27:50;;;;;;;3.67;1.67;;;16.80;91.00;16.90;100735.00;;;;4962118;28;88630;-66
2023/10/07 07:30:20;;;;;;;4.18;1.98;;;16.80;90.90;16.90;100741.00;;;;4981204;27;91320;-68
2023/10/07 07:32:58;;;;;;;2.65;1.10;;;16.80;91.00;16.90;100742.00;;;;4983591;27;88862;-67
2023/10/07 07:35:38;;;;;;;2.67;0.98;;;16.80;91.60;16.70;100761.00;;;;4980982;27;88284;-68
2023/10/07 07:38:30;;;;;;;2.50;0.90;;;16.70;92.00;16.50;100767.00;;;;4966023;27;88496;-67
2023/10/07 07:43:51;;;;;;;2.30;1.13;;;16.40;92.00;16.50;100776.00;;;;4984243;27;88071;-65
2023/10/07 07:48:53;;;;;;;1.67;1.45;;;16.40;92.00;16.60;100783.00;;;;4982516;27;102447;-65
2023/10/07 07:51:24;;;;;;;1.20;1.10;;;16.50;92.30;16.50;100773.00;;;;4983484;27;88057;-66
2023/10/07 07:53:51;;;;;;;2.15;1.15;;;16.50;92.60;16.50;100769.00;;;;4983395;27;89230;-66
2023/10/07 07:56:20;;;;;;;2.28;0.90;;;16.40;93.00;16.40;100783.00;;;;4961103;28;89460;-66
2023/10/07 07:58:49;;;;;;;1.63;1.48;;;16.40;93.30;16.40;100765.00;;;;4988440;27;87889;-65
2023/10/07 08:01:23;;;;;;;1.63;1.52;;;16.30;93.30;16.50;100770.00;;;;4981640;27;87861;-67
2023/10/07 08:03:49;;;;;;;4.07;1.55;;;16.50;93.30;16.60;100769.00;;;;4986898;27;87941;-66
2023/10/07 08:06:21;;;;;;;2.75;1.67;;;16.50;93.20;16.70;100759.00;;;;4982608;27;88804;-67
2023/10/07 08:08:49;;;;;;;2.35;0.98;;;16.60;93.20;16.80;100777.00;;;;4983549;27;87918;-66
2023/10/07 08:11:17;;;;;;;1.55;1.15;;;16.70;93.20;17.00;100777.00;;;;4983408;27;87989;-66
2023/10/07 08:13:45;;;;;;;3.20;1.02;;;16.80;93.20;17.10;100773.00;;;;4978989;27;88059;-67
2023/10/07 08:16:17;;;;;;;3.88;1.48;;;16.90;92.90;17.20;100776.00;;;;4980447;27;88293;-67
2023/10/07 08:18:44;;;;;;;1.98;1.10;;;17.00;92.90;17.20;100783.00;;;;4964279;27;88134;-66
2023/10/07 08:21:13;;;;;;;1.23;1.02;;;17.10;92.80;17.20;100777.00;;;;4981849;27;89125;-67
2023/10/07 08:23:44;;;;;;;1.13;0.82;;;17.10;92.80;17.20;100772.00;;;;4986063;27;88275;-66
2023/10/07 08:26:11;;;;;;;1.10;0.85;;;17.10;92.90;17.20;100777.00;;;;4983728;27;88834;-66
2023/10/07 08:28:43;;;;;;;5.95;1.27;;;17.00;92.90;17.10;100769.00;;;;4982448;27;89039;-67
2023/10/07 08:31:20;;;;;;;1.70;1.33;;;17.10;93.10;17.10;100780.00;;;;4982993;27;87848;-66
2023/10/07 08:34:09;;;;;;;1.13;1.02;;;17.00;93.10;17.10;100772.00;;;;4964194;28;89497;-68
2023/10/07 08:36:43;;;;;;;0.93;0.77;;;17.00;93.50;17.10;100766.00;;;;4979506;27;88071;-66
2023/10/07 08:39:09;;;;;;;1.42;0.70;;;17.10;93.20;17.20;100759.00;;;;4978115;27;87652;-67
2023/10/07 08:41:40;;;;;;;3.13;1.15;;;17.00;93.30;17.30;100752.00;;;;4982338;27;88385;-69
2023/10/07 08:44:17;;;;;;;1.90;0.80;;;17.10;93.30;17.30;100771.00;;;;4979495;27;89758;-66
2023/10/07 08:46:56;;;;;;;1.75;1.02;;;17.20;93.20;17.40;100777.00;;;;4956858;27;89285;-65
2023/10/07 08:49:26;;;;;;;1.92;1.40;;;17.30;93.10;17.50;100764.00;;;;4981386;27;87829;-66
2023/10/07 08:51:56;;;;;;;1.40;1.30;;;17.30;93.10;17.50;100781.00;;;;4982630;27;87890;-66
2023/10/07 08:54:26;;;;;;;1.33;0.90;;;17.40;93.00;17.60;100772.00;;;;4981165;27;94894;-66
2023/10/07 08:56:58;;;;;;;1.67;1.45;;;17.40;93.00;17.60;100788.00;;;;4985329;27;88090;-65
2023/10/07 08:59:30;;;;;;;2.15;1.30;;;17.50;92.80;17.60;100785.00;;;;4985090;27;88231;-66
2023/10/07 09:02:25;;;;;;;3.92;1.50;;;17.50;92.80;17.70;100792.00;;;;4986675;27;87869;-65
2023/10/07 09:04:58;;;;;;;4.43;1.58;;;17.50;92.60;17.70;100787.00;;;;4989351;27;89189;-65
2023/10/07 09:07:31;;;;;;;3.72;1.50;;;17.60;92.30;17.60;100785.00;;;;4987537;27;88012;-66
2023/10/07 09:10:06;;;;;;;2.38;0.80;;;17.50;92.20;17.70;100785.00;;;;4966839;28;87750;-66
2023/10/07 09:12:38;;;;;;;1.17;1.08;;;17.60;92.30;17.70;100797.00;;;;4983385;27;88734;-66
2023/10/07 09:15:12;;;;;;;1.65;1.23;;;17.60;92.30;17.80;100788.00;;;;4988052;27;88320;-66
2023/10/07 09:17:41;;;;;;;2.65;0.65;;;17.60;92.30;17.90;100784.00;;;;4986697;27;87882;-65
2023/10/07 09:20:29;;;;;;;3.10;0.68;;;17.60;92.10;17.90;100785.00;;;;4980828;27;87962;-69
2023/10/07 09:23:06;;;;;;;2.38;1.23;;;17.80;92.10;17.90;100805.00;;;;4988828;27;88163;-66
2023/10/07 09:25:32;;;;;;;1.17;1.08;;;17.80;92.00;17.90;100790.00;;;;4986925;27;87818;-66
2023/10/07 09:28:00;;;;;;;1.80;1.27;;;17.80;91.90;17.90;100784.00;;;;4983423;27;88234;-66
2023/10/07 09:30:35;;;;;;;1.17;0.98;;;17.80;91.90;17.90;100787.00;;;;4985153;27;87649;-67
2023/10/07 09:33:06;;;;;;;3.55;1.17;;;17.80;91.90;17.90;100784.00;;;;4987493;28;87988;-66
2023/10/07 09:35:33;;;;;;;2.10;1.70;;;17.80;91.90;17.90;100782.00;;;;4971567;28;88302;-66
2023/10/07 09:38:00;;;;;;;6.03;1.42;;;17.80;91.90;17.90;100764.00;;;;4983795;27;88759;-66
2023/10/07 09:43:20;;;;;;;2.67;1.73;;;17.60;91.90;17.90;100765.00;;;;4966328;27;87760;-67
2023/10/07 09:45:52;;;;;;;1.48;1.38;;;17.80;92.00;17.90;100763.00;;;;4967836;28;89237;-67
2023/10/07 09:48:31;;;;;;;3.03;1.63;;;17.70;91.90;17.90;100753.00;;;;4986136;27;89132;-67
2023/10/07 09:51:02;;;;;;;1.60;1.10;;;17.70;91.90;17.90;100750.00;;;;4989647;27;87871;-66
2023/10/07 09:54:16;;;;;;;2.13;1.30;;;17.80;92.10;17.90;100751.00;;;;4984628;28;87945;-66
2023/10/07 09:57:20;;;;;;;5.55;1.27;;;17.80;92.00;17.90;100750.00;;;;4973594;27;87185;-66
2023/10/07 10:00:37;;;;;;;1.40;1.10;;;17.80;92.00;18.00;100743.00;;;;4987394;27;88448;-67
2023/10/07 10:03:35;;;;;;;3.63;1.42;;;17.90;92.00;18.00;100739.00;;;;4987193;27;88026;-66
2023/10/07 10:06:49;;;;;;;2.05;1.17;;;17.90;92.10;18.10;100731.00;;;;4882900;28;89140;-67
2023/10/07 10:09:23;;;;;;;1.30;1.20;;;18.00;92.10;18.20;100725.00;;;;4928772;28;88048;-67
2023/10/07 10:15:42;;;;;;;3.90;1.50;;;18.10;92.00;18.30;100733.00;;;;4964884;27;87843;-68
2023/10/07 10:17:48;;;;;;;1.95;1.33;;;18.20;91.90;18.50;100732.00;;;;4982792;27;87857;-66
2023/10/07 10:20:18;;;;;;;1.02;0.93;;;18.30;91.80;18.50;100720.00;;;;4981517;27;90571;-67
2023/10/07 10:22:51;;;;;;;0.70;0.70;;;18.40;91.60;18.60;100706.00;;;;4983550;27;88473;-67
2023/10/07 10:25:36;;;;;;;1.50;1.05;;;18.40;91.50;18.60;100719.00;;;;4992335;27;87048;-67
2023/10/07 10:28:10;;;;;;;1.05;0.95;;;18.40;91.50;18.70;100724.00;;;;5002981;27;87912;-67
2023/10/07 10:30:53;;;;;;;1.50;1.40;;;18.50;91.50;18.70;100716.00;;;;5004654;27;88380;-66
2023/10/07 10:33:20;;;;;;;1.13;1.02;;;18.60;91.50;18.80;100726.00;;;;5005077;27;89097;-67
2023/10/07 10:35:57;;;;;;;1.77;1.50;;;18.60;91.50;18.90;100720.00;;;;5004616;27;88068;-66
2023/10/07 10:38:41;;;;;;;1.08;0.98;;;18.70;91.30;18.90;100722.00;;;;4992309;27;88959;-66
2023/10/07 10:41:08;;;;;;;2.10;1.60;;;18.80;91.40;19.00;100699.00;;;;4994238;27;88840;-65
2023/10/07 10:43:34;;;;;;;1.55;1.45;;;18.90;91.40;19.10;100699.00;;;;5005911;27;88599;-65
2023/10/07 10:46:04;;;;;;;4.15;1.20;;;18.90;91.30;19.20;100709.00;;;;4994797;27;87913;-66
2023/10/07 10:48:34;;;;;;;2.55;1.73;;;19.00;91.30;19.30;100705.00;;;;4993230;27;88182;-66
2023/10/07 10:51:06;;;;;;;1.30;1.13;;;19.10;91.10;19.50;100691.00;;;;5004295;27;87951;-66
2023/10/07 10:53:33;;;;;;;1.95;1.60;;;19.30;91.10;19.60;100681.00;;;;5004301;27;89722;-67
2023/10/07 10:56:03;;;;;;;1.58;1.17;;;19.40;90.90;19.80;100683.00;;;;4990338;27;95265;-66
2023/10/07 10:58:30;;;;;;;2.13;1.27;;;19.50;90.80;19.90;100682.00;;;;5004261;27;88710;-67
2023/10/07 11:00:55;;;;;;;3.53;1.70;;;19.70;90.80;20.00;100688.00;;;;5002815;27;88200;-67
2023/10/07 11:03:21;;;;;;;2.40;1.40;;;19.80;90.40;20.10;100694.00;;;;5004137;27;115450;-67
2023/10/07 11:05:51;;;;;;;2.75;1.48;;;19.90;90.20;20.10;100700.00;;;;5005581;27;110508;-68
2023/10/07 11:08:22;;;;;;;4.60;1.45;;;19.90;89.90;20.10;100674.00;;;;5000599;27;88078;-66
2023/10/07 11:10:57;;;;;;;1.75;1.65;;;19.90;89.80;20.00;100687.00;;;;5006164;27;87814;-65
2023/10/07 11:13:25;;;;;;;2.55;1.33;;;19.90;89.70;20.00;100660.00;;;;4991493;27;87903;-67
2023/10/07 11:16:10;;;;;;;3.03;1.30;;;19.80;89.90;19.90;100672.00;;;;5003569;27;88410;-66
2023/10/07 11:18:38;;;;;;;1.40;1.20;;;19.70;89.90;19.80;100675.00;;;;4991709;27;87851;-66
2023/10/07 11:21:09;;;;;;;2.38;1.40;;;19.70;90.00;19.80;100691.00;;;;5004875;27;89087;-66
2023/10/07 11:23:46;;;;;;;8.27;1.20;;;19.60;90.10;19.70;100686.00;;;;5001119;27;88948;-65
2023/10/07 11:26:12;;;;;;;1.25;1.08;;;19.60;90.20;19.70;100665.00;;;;5003267;27;87875;-65
2023/10/07 11:28:41;;;;;;;4.15;1.75;;;19.50;90.20;19.70;100669.00;;;;5002170;27;87910;-67
2023/10/07 11:31:10;;;;;;;2.83;1.92;;;19.30;90.30;19.70;100668.00;;;;4998911;27;89206;-66
2023/10/07 11:33:36;;;;;;;4.22;1.48;;;19.60;90.50;19.80;100663.00;;;;5000452;27;89484;-65
2023/10/07 11:36:06;;;;;;;2.78;1.15;;;19.60;90.40;19.80;100660.00;;;;5000660;27;110812;-65
2023/10/07 11:38:32;;;;;;;4.13;1.52;;;19.70;90.40;19.90;100648.00;;;;5004467;27;88103;-65
2023/10/07 11:40:59;;;;;;;1.45;0.75;;;19.70;90.60;20.00;100650.00;;;;5003011;27;117147;-65
2023/10/07 11:43:27;;;;;;;1.55;1.02;;;19.80;90.60;20.20;100653.00;;;;5003653;27;90242;-65
2023/10/07 11:45:53;;;;;;;3.03;1.60;;;19.90;90.30;20.30;100648.00;;;;5004133;27;88174;-67
2023/10/07 11:48:24;;;;;;;1.58;1.48;;;20.00;90.10;20.30;100644.00;;;;5004015;27;88891;-67
2023/10/07 11:50:50;;;;;;;2.65;1.35;;;20.10;89.80;20.30;100649.00;;;;5003165;27;88133;-67
2023/10/07 11:53:17;;;;;;;2.75;1.48;;;20.10;90.00;20.30;100635.00;;;;5001712;27;116205;-66
2023/10/07 11:55:43;;;;;;;2.08;1.00;;;20.20;90.00;20.30;100633.00;;;;5002076;27;87838;-66